Aérodrome :
LOGIN :

S'inscrire | Disclaimer

   EN    FR    IT 

 










Légende :    VFR   VFR Marginal   IFR   IFR Intensif   IFR Très Intensif
Visi : 
Plafond : 
>= 8 km
>= 3000ft
5 à 8 km
1000 à 3000 ft
1500m à 5 km
500 à 1000 ft
800 à 1500m
200 à 500 ft
< 800m
< 200 ft
Symboles :   Orages  Brouillard  Fortes neiges  Fortes précipitations  Vent > 20 kt
SIGMETs :   Divers  Orages  Givrage  Turbulence  Onde Orograph.  Cendres Volcan.







- Altitude de l'aérodrome : 313 ft
- Code IATA : LEH
- Voir les cartes d'approche


LFOH - Le Havre Octeville

DERNIER METAR :
  • 171430Z AUTO 30008KT 270V330 CAVOK 19/11 Q1022 NOSIG

METARs EXPIRÉS :
  • 171400Z AUTO 29007KT 260V330 9999 FEW023 19/13 Q1022 NOSIG
  • 171330Z AUTO 29007KT 250V320 9999 BKN021 BKN027 18/13 Q1023 NOSIG
  • 171300Z AUTO 30009KT 9999 BKN023 BKN030 19/13 Q1023 NOSIG
  • 171230Z AUTO 29009KT 9999 SCT022 BKN028 BKN034 19/13 Q1023 NOSIG
  • 171200Z AUTO 30008KT 9999 BKN022 BKN031 19/13 Q1022 NOSIG
  • 171130Z AUTO 29008KT 9999 SCT022 SCT036 18/12 Q1022 NOSIG

TAF TAF LFOH
Valide du 17 à 12h jusqu'au 18 à 12h UTC


171100Z 1712/1812 33008KT 9999 BKN020
BECMG 1801/1803 OVC006
BECMG 1807/1809 BKN012
ATIS : +33 2 35 54 64 93
Pas de NOTAMs connus pour ce terrain.
1 SIGMET publié pour la FIR Paris (LFFF) :
 
Turbulence forte
LFFF SIGMET 7 VALID 171400/171800 LFPW
LFFF PARIS FIR/UIR SEV TURB FCST WI N4630 E00245 - N4715 E00200 - N4715 E00130 - N5000 E00430 - N4930 E00600 - N4900 E00445 - N4845 E00515 - N4645 E00300 - N4630 E00245 FL230/340 MOV E 10KT NC=



MET'MAP, la Météo Aéronautique d'un coup d'oeil ! - Copyright ORBIFLY Décembre 2007 - Disclaimer

ORBIFLY MET'MAP TEAM :

Programmation & Développement : Alexandra Zaïnal
Conception & Développement : Baudouin d'Aumeries
Co-Programmation & Développement : Marc-Olivier Méhu
Soutien technique & logistique : Manuel Goepfert

Contact : metmap@orbifly.com




SOURCES & CREDITS :

   NOAA